sensor_id;sensor_type;location;lat;lon;timestamp;P1;durP1;ratioP1;P2;durP2;ratioP2
76962;SDS011;65902;51.452;7.198;2022-12-07T22:01:00;34.13;;;27.75;;
76962;SDS011;65902;51.452;7.198;2022-12-07T22:02:00;32.50;;;27.40;;
76962;SDS011;65902;51.452;7.198;2022-12-07T22:03:03;35.70;;;29.27;;
76962;SDS011;65902;51.452;7.198;2022-12-07T22:04:05;33.23;;;27.53;;
76962;SDS011;65902;51.452;7.198;2022-12-07T22:05:07;33.42;;;28.13;;
76962;SDS011;65902;51.452;7.198;2022-12-07T22:06:13;34.40;;;28.90;;
76962;SDS011;65902;51.452;7.198;2022-12-07T22:07:19;36.63;;;30.77;;
76962;SDS011;65902;51.452;7.198;2022-12-07T22:08:22;36.20;;;30.33;;
76962;SDS011;65902;51.452;7.198;2022-12-07T22:09:24;34.40;;;30.30;;
76962;SDS011;65902;51.452;7.198;2022-12-07T22:10:26;35.72;;;30.00;;
76962;SDS011;65902;51.452;7.198;2022-12-07T22:11:29;36.23;;;30.17;;
76962;SDS011;65902;51.452;7.198;2022-12-07T22:12:30;39.28;;;32.30;;
76962;SDS011;65902;51.452;7.198;2022-12-07T22:13:35;36.40;;;32.40;;
76962;SDS011;65902;51.452;7.198;2022-12-07T22:14:55;35.90;;;28.67;;
76962;SDS011;65902;51.452;7.198;2022-12-07T22:16:08;32.83;;;28.23;;
76962;SDS011;65902;51.452;7.198;2022-12-07T22:17:09;35.67;;;28.52;;
76962;SDS011;65902;51.452;7.198;2022-12-07T22:18:14;38.58;;;30.70;;
76962;SDS011;65902;51.452;7.198;2022-12-07T22:19:14;32.78;;;26.38;;
76962;SDS011;65902;51.452;7.198;2022-12-07T22:20:15;32.70;;;28.52;;
76962;SDS011;65902;51.452;7.198;2022-12-07T22:21:17;32.05;;;26.48;;
76962;SDS011;65902;51.452;7.198;2022-12-07T22:22:20;31.63;;;25.85;;
76962;SDS011;65902;51.452;7.198;2022-12-07T22:26:22;23.70;;;15.27;;
76962;SDS011;65902;51.452;7.198;2022-12-07T22:27:22;20.88;;;16.33;;
76962;SDS011;65902;51.452;7.198;2022-12-07T22:28:23;24.38;;;16.90;;
76962;SDS011;65902;51.452;7.198;2022-12-07T22:29:24;23.90;;;15.85;;
76962;SDS011;65902;51.452;7.198;2022-12-07T22:30:25;27.67;;;21.90;;
76962;SDS011;65902;51.452;7.198;2022-12-07T22:31:25;26.10;;;21.42;;
76962;SDS011;65902;51.452;7.198;2022-12-07T22:32:26;28.13;;;23.70;;
76962;SDS011;65902;51.452;7.198;2022-12-07T22:33:31;23.73;;;17.67;;
76962;SDS011;65902;51.452;7.198;2022-12-07T22:34:34;28.10;;;25.30;;
76962;SDS011;65902;51.452;7.198;2022-12-07T22:35:36;27.58;;;23.90;;
76962;SDS011;65902;51.452;7.198;2022-12-07T22:36:37;27.05;;;22.35;;
76962;SDS011;65902;51.452;7.198;2022-12-07T22:37:37;22.95;;;20.17;;
76962;SDS011;65902;51.452;7.198;2022-12-07T22:38:38;19.05;;;14.95;;
76962;SDS011;65902;51.452;7.198;2022-12-07T22:39:39;20.38;;;18.17;;
76962;SDS011;65902;51.452;7.198;2022-12-07T22:40:42;22.30;;;15.48;;
76962;SDS011;65902;51.452;7.198;2022-12-07T22:41:43;19.63;;;14.38;;
76962;SDS011;65902;51.452;7.198;2022-12-07T22:42:44;21.38;;;16.00;;
76962;SDS011;65902;51.452;7.198;2022-12-07T22:43:47;24.23;;;15.82;;
76962;SDS011;65902;51.452;7.198;2022-12-07T22:44:51;19.08;;;14.52;;
76962;SDS011;65902;51.452;7.198;2022-12-07T22:45:54;17.77;;;15.38;;
76962;SDS011;65902;51.452;7.198;2022-12-07T22:46:56;22.40;;;15.82;;
76962;SDS011;65902;51.452;7.198;2022-12-07T22:47:59;20.05;;;13.73;;
76962;SDS011;65902;51.452;7.198;2022-12-07T22:49:00;18.75;;;14.00;;
76962;SDS011;65902;51.452;7.198;2022-12-07T22:50:01;17.25;;;12.43;;
76962;SDS011;65902;51.452;7.198;2022-12-07T22:51:04;21.83;;;14.68;;
76962;SDS011;65902;51.452;7.198;2022-12-07T22:52:04;17.42;;;15.38;;
76962;SDS011;65902;51.452;7.198;2022-12-07T22:53:05;18.77;;;13.25;;
76962;SDS011;65902;51.452;7.198;2022-12-07T22:54:10;21.27;;;12.85;;
76962;SDS011;65902;51.452;7.198;2022-12-07T22:55:16;20.60;;;15.10;;
76962;SDS011;65902;51.452;7.198;2022-12-07T22:56:16;19.85;;;14.65;;
76962;SDS011;65902;51.452;7.198;2022-12-07T22:57:19;25.85;;;23.70;;
76962;SDS011;65902;51.452;7.198;2022-12-07T22:58:20;20.40;;;18.40;;
76962;SDS011;65902;51.452;7.198;2022-12-07T22:59:21;17.63;;;13.10;;
76962;SDS011;65902;51.452;7.198;2022-12-07T23:00:21;17.35;;;12.88;;
76962;SDS011;65902;51.452;7.198;2022-12-07T23:01:27;20.80;;;15.27;;
76962;SDS011;65902;51.452;7.198;2022-12-07T23:02:30;20.73;;;15.63;;
76962;SDS011;65902;51.452;7.198;2022-12-07T23:03:30;18.15;;;15.98;;
76962;SDS011;65902;51.452;7.198;2022-12-07T23:04:34;18.10;;;13.65;;
76962;SDS011;65902;51.452;7.198;2022-12-07T23:05:41;21.80;;;17.88;;
76962;SDS011;65902;51.452;7.198;2022-12-07T23:06:43;22.05;;;14.93;;
76962;SDS011;65902;51.452;7.198;2022-12-07T23:07:44;19.00;;;14.02;;
76962;SDS011;65902;51.452;7.198;2022-12-07T23:08:47;22.67;;;19.50;;
76962;SDS011;65902;51.452;7.198;2022-12-07T23:10:49;17.60;;;12.90;;
76962;SDS011;65902;51.452;7.198;2022-12-07T23:11:52;19.88;;;15.60;;
76962;SDS011;65902;51.452;7.198;2022-12-07T23:13:11;25.38;;;23.08;;
76962;SDS011;65902;51.452;7.198;2022-12-07T23:14:34;23.38;;;21.13;;
76962;SDS011;65902;51.452;7.198;2022-12-07T23:15:37;19.90;;;17.67;;
76962;SDS011;65902;51.452;7.198;2022-12-07T23:16:38;21.30;;;14.77;;
76962;SDS011;65902;51.452;7.198;2022-12-07T23:17:39;23.25;;;17.75;;
76962;SDS011;65902;51.452;7.198;2022-12-07T23:18:40;23.40;;;21.08;;
76962;SDS011;65902;51.452;7.198;2022-12-07T23:19:41;20.30;;;15.23;;
76962;SDS011;65902;51.452;7.198;2022-12-07T23:20:42;20.92;;;16.00;;
76962;SDS011;65902;51.452;7.198;2022-12-07T23:21:47;23.25;;;16.25;;
76962;SDS011;65902;51.452;7.198;2022-12-07T23:22:50;23.00;;;16.15;;
76962;SDS011;65902;51.452;7.198;2022-12-07T23:23:51;25.02;;;17.13;;
76962;SDS011;65902;51.452;7.198;2022-12-07T23:24:52;22.83;;;17.48;;
76962;SDS011;65902;51.452;7.198;2022-12-07T23:25:57;25.80;;;23.35;;
76962;SDS011;65902;51.452;7.198;2022-12-07T23:27:04;21.95;;;17.30;;
76962;SDS011;65902;51.452;7.198;2022-12-07T23:28:09;17.90;;;14.82;;
76962;SDS011;65902;51.452;7.198;2022-12-07T23:29:10;21.67;;;15.25;;
76962;SDS011;65902;51.452;7.198;2022-12-07T23:30:11;24.20;;;16.30;;
76962;SDS011;65902;51.452;7.198;2022-12-07T23:31:14;27.85;;;18.58;;
76962;SDS011;65902;51.452;7.198;2022-12-07T23:32:17;25.85;;;16.40;;
76962;SDS011;65902;51.452;7.198;2022-12-07T23:33:17;24.13;;;17.92;;
76962;SDS011;65902;51.452;7.198;2022-12-07T23:34:18;22.58;;;17.08;;
76962;SDS011;65902;51.452;7.198;2022-12-07T23:35:21;20.80;;;15.80;;
76962;SDS011;65902;51.452;7.198;2022-12-07T23:36:26;24.90;;;18.05;;
76962;SDS011;65902;51.452;7.198;2022-12-07T23:37:27;19.92;;;14.13;;
76962;SDS011;65902;51.452;7.198;2022-12-07T23:38:28;25.45;;;18.67;;
76962;SDS011;65902;51.452;7.198;2022-12-07T23:39:30;22.67;;;16.60;;
76962;SDS011;65902;51.452;7.198;2022-12-07T23:40:33;28.20;;;20.48;;
76962;SDS011;65902;51.452;7.198;2022-12-07T23:41:36;28.15;;;17.92;;
76962;SDS011;65902;51.452;7.198;2022-12-07T23:42:37;26.17;;;16.98;;
76962;SDS011;65902;51.452;7.198;2022-12-07T23:43:48;24.23;;;21.27;;
76962;SDS011;65902;51.452;7.198;2022-12-07T23:44:49;27.95;;;18.70;;
76962;SDS011;65902;51.452;7.198;2022-12-07T23:45:50;23.58;;;17.92;;
76962;SDS011;65902;51.452;7.198;2022-12-07T23:46:50;26.08;;;17.48;;
76962;SDS011;65902;51.452;7.198;2022-12-07T23:47:51;24.73;;;17.48;;
76962;SDS011;65902;51.452;7.198;2022-12-07T23:48:52;24.45;;;19.20;;
76962;SDS011;65902;51.452;7.198;2022-12-07T23:49:56;27.45;;;19.02;;
76962;SDS011;65902;51.452;7.198;2022-12-07T23:50:59;30.55;;;20.58;;
76962;SDS011;65902;51.452;7.198;2022-12-07T23:52:00;23.98;;;19.17;;
76962;SDS011;65902;51.452;7.198;2022-12-07T23:53:00;25.50;;;19.70;;
76962;SDS011;65902;51.452;7.198;2022-12-07T23:54:03;23.02;;;16.05;;
76962;SDS011;65902;51.452;7.198;2022-12-07T23:55:06;23.67;;;16.83;;
76962;SDS011;65902;51.452;7.198;2022-12-07T23:56:11;27.60;;;17.67;;
76962;SDS011;65902;51.452;7.198;2022-12-07T23:57:13;26.25;;;16.88;;
76962;SDS011;65902;51.452;7.198;2022-12-07T23:58:13;25.98;;;16.88;;
76962;SDS011;65902;51.452;7.198;2022-12-07T23:59:16;26.33;;;19.30;;
